sensor_id;sensor_type;location;lat;lon;timestamp;P1;durP1;ratioP1;P2;durP2;ratioP2
11598;SDS011;5855;48.840;9.188;2023-02-28T00:01:17;2.88;;;2.00;;
11598;SDS011;5855;48.840;9.188;2023-02-28T00:03:44;3.65;;;2.10;;
11598;SDS011;5855;48.840;9.188;2023-02-28T00:06:11;2.45;;;2.15;;
11598;SDS011;5855;48.840;9.188;2023-02-28T00:08:38;2.27;;;1.90;;
11598;SDS011;5855;48.840;9.188;2023-02-28T00:11:08;2.10;;;1.90;;
11598;SDS011;5855;48.840;9.188;2023-02-28T00:13:37;3.35;;;2.20;;
11598;SDS011;5855;48.840;9.188;2023-02-28T00:16:06;1.90;;;1.60;;
11598;SDS011;5855;48.840;9.188;2023-02-28T00:18:35;2.63;;;2.00;;
11598;SDS011;5855;48.840;9.188;2023-02-28T00:21:02;2.80;;;2.03;;
11598;SDS011;5855;48.840;9.188;2023-02-28T00:23:29;3.57;;;1.90;;
11598;SDS011;5855;48.840;9.188;2023-02-28T00:25:56;3.58;;;2.08;;
11598;SDS011;5855;48.840;9.188;2023-02-28T00:28:24;2.83;;;2.03;;
11598;SDS011;5855;48.840;9.188;2023-02-28T00:30:51;2.33;;;2.00;;
11598;SDS011;5855;48.840;9.188;2023-02-28T00:33:18;2.57;;;2.10;;
11598;SDS011;5855;48.840;9.188;2023-02-28T00:35:44;2.63;;;2.10;;
11598;SDS011;5855;48.840;9.188;2023-02-28T00:38:13;2.55;;;2.20;;
11598;SDS011;5855;48.840;9.188;2023-02-28T00:40:40;4.23;;;2.00;;
11598;SDS011;5855;48.840;9.188;2023-02-28T00:43:07;2.13;;;1.90;;
11598;SDS011;5855;48.840;9.188;2023-02-28T00:45:35;3.43;;;2.13;;
11598;SDS011;5855;48.840;9.188;2023-02-28T00:48:02;3.50;;;2.20;;
11598;SDS011;5855;48.840;9.188;2023-02-28T00:50:30;2.40;;;2.10;;
11598;SDS011;5855;48.840;9.188;2023-02-28T00:52:56;2.22;;;2.00;;
11598;SDS011;5855;48.840;9.188;2023-02-28T00:55:23;2.77;;;2.27;;
11598;SDS011;5855;48.840;9.188;2023-02-28T00:57:50;2.63;;;2.30;;
11598;SDS011;5855;48.840;9.188;2023-02-28T01:00:17;2.30;;;2.10;;
11598;SDS011;5855;48.840;9.188;2023-02-28T01:02:46;3.37;;;2.30;;
11598;SDS011;5855;48.840;9.188;2023-02-28T01:05:12;3.07;;;2.40;;
11598;SDS011;5855;48.840;9.188;2023-02-28T01:07:39;2.47;;;2.27;;
11598;SDS011;5855;48.840;9.188;2023-02-28T01:10:06;2.80;;;2.37;;
11598;SDS011;5855;48.840;9.188;2023-02-28T01:12:34;2.30;;;2.10;;
11598;SDS011;5855;48.840;9.188;2023-02-28T01:15:01;2.50;;;2.30;;
11598;SDS011;5855;48.840;9.188;2023-02-28T01:17:28;2.65;;;2.45;;
11598;SDS011;5855;48.840;9.188;2023-02-28T01:19:56;2.73;;;2.53;;
11598;SDS011;5855;48.840;9.188;2023-02-28T01:22:23;3.60;;;2.40;;
11598;SDS011;5855;48.840;9.188;2023-02-28T01:24:50;3.57;;;2.37;;
11598;SDS011;5855;48.840;9.188;2023-02-28T01:27:17;3.03;;;2.67;;
11598;SDS011;5855;48.840;9.188;2023-02-28T01:29:43;3.45;;;2.95;;
11598;SDS011;5855;48.840;9.188;2023-02-28T01:32:10;2.70;;;2.50;;
11598;SDS011;5855;48.840;9.188;2023-02-28T01:34:37;2.42;;;2.22;;
11598;SDS011;5855;48.840;9.188;2023-02-28T01:37:05;2.40;;;2.20;;
11598;SDS011;5855;48.840;9.188;2023-02-28T01:39:32;3.10;;;2.80;;
11598;SDS011;5855;48.840;9.188;2023-02-28T01:41:58;2.93;;;2.47;;
11598;SDS011;5855;48.840;9.188;2023-02-28T01:47:26;3.60;;;2.60;;
11598;SDS011;5855;48.840;9.188;2023-02-28T01:49:55;3.03;;;2.40;;
11598;SDS011;5855;48.840;9.188;2023-02-28T01:52:23;3.63;;;2.70;;
11598;SDS011;5855;48.840;9.188;2023-02-28T01:54:52;3.03;;;2.73;;
11598;SDS011;5855;48.840;9.188;2023-02-28T01:57:21;3.25;;;2.95;;
11598;SDS011;5855;48.840;9.188;2023-02-28T01:59:52;3.13;;;2.33;;
11598;SDS011;5855;48.840;9.188;2023-02-28T02:02:24;4.20;;;2.77;;
11598;SDS011;5855;48.840;9.188;2023-02-28T02:04:53;3.67;;;3.00;;
11598;SDS011;5855;48.840;9.188;2023-02-28T02:07:24;3.95;;;3.00;;
11598;SDS011;5855;48.840;9.188;2023-02-28T02:09:59;3.03;;;2.72;;
11598;SDS011;5855;48.840;9.188;2023-02-28T02:12:32;3.87;;;2.80;;
11598;SDS011;5855;48.840;9.188;2023-02-28T02:15:11;3.93;;;2.80;;
11598;SDS011;5855;48.840;9.188;2023-02-28T02:17:42;3.10;;;2.80;;
11598;SDS011;5855;48.840;9.188;2023-02-28T02:23:21;4.17;;;3.00;;
11598;SDS011;5855;48.840;9.188;2023-02-28T02:26:30;3.23;;;2.93;;
11598;SDS011;5855;48.840;9.188;2023-02-28T02:32:28;3.50;;;3.03;;
11598;SDS011;5855;48.840;9.188;2023-02-28T02:35:17;2.60;;;2.40;;
11598;SDS011;5855;48.840;9.188;2023-02-28T02:37:51;3.10;;;2.80;;
11598;SDS011;5855;48.840;9.188;2023-02-28T02:40:22;3.78;;;2.83;;
11598;SDS011;5855;48.840;9.188;2023-02-28T02:42:52;3.53;;;2.83;;
11598;SDS011;5855;48.840;9.188;2023-02-28T02:45:23;4.03;;;2.83;;
11598;SDS011;5855;48.840;9.188;2023-02-28T02:47:53;4.93;;;2.90;;
11598;SDS011;5855;48.840;9.188;2023-02-28T02:50:25;2.95;;;2.67;;
11598;SDS011;5855;48.840;9.188;2023-02-28T02:52:56;3.22;;;2.63;;
11598;SDS011;5855;48.840;9.188;2023-02-28T02:55:26;2.78;;;2.50;;
11598;SDS011;5855;48.840;9.188;2023-02-28T02:57:54;3.33;;;2.77;;
11598;SDS011;5855;48.840;9.188;2023-02-28T03:00:25;3.53;;;2.90;;
11598;SDS011;5855;48.840;9.188;2023-02-28T03:02:56;4.23;;;3.10;;
11598;SDS011;5855;48.840;9.188;2023-02-28T03:05:25;3.83;;;3.13;;
11598;SDS011;5855;48.840;9.188;2023-02-28T03:07:55;3.87;;;2.90;;
11598;SDS011;5855;48.840;9.188;2023-02-28T03:13:11;4.73;;;3.30;;
11598;SDS011;5855;48.840;9.188;2023-02-28T03:16:02;4.35;;;3.10;;
11598;SDS011;5855;48.840;9.188;2023-02-28T03:18:40;3.57;;;2.90;;
11598;SDS011;5855;48.840;9.188;2023-02-28T03:21:18;3.42;;;2.95;;
11598;SDS011;5855;48.840;9.188;2023-02-28T03:23:53;4.32;;;3.13;;
11598;SDS011;5855;48.840;9.188;2023-02-28T03:26:25;4.97;;;3.50;;
11598;SDS011;5855;48.840;9.188;2023-02-28T03:28:54;3.97;;;3.08;;
11598;SDS011;5855;48.840;9.188;2023-02-28T03:31:30;3.50;;;3.20;;
11598;SDS011;5855;48.840;9.188;2023-02-28T03:34:01;3.97;;;3.40;;
11598;SDS011;5855;48.840;9.188;2023-02-28T03:36:34;4.45;;;3.42;;
11598;SDS011;5855;48.840;9.188;2023-02-28T03:39:09;3.20;;;2.90;;
11598;SDS011;5855;48.840;9.188;2023-02-28T03:41:40;3.65;;;3.35;;
11598;SDS011;5855;48.840;9.188;2023-02-28T03:44:10;3.67;;;3.17;;
11598;SDS011;5855;48.840;9.188;2023-02-28T03:46:41;6.28;;;3.47;;
11598;SDS011;5855;48.840;9.188;2023-02-28T03:49:14;3.97;;;3.55;;
11598;SDS011;5855;48.840;9.188;2023-02-28T03:51:46;3.57;;;3.00;;
11598;SDS011;5855;48.840;9.188;2023-02-28T03:54:17;4.47;;;3.30;;
11598;SDS011;5855;48.840;9.188;2023-02-28T03:56:47;4.63;;;3.40;;
11598;SDS011;5855;48.840;9.188;2023-02-28T03:59:20;3.65;;;3.17;;
11598;SDS011;5855;48.840;9.188;2023-02-28T04:01:52;3.85;;;3.40;;
11598;SDS011;5855;48.840;9.188;2023-02-28T04:04:20;4.38;;;3.50;;
11598;SDS011;5855;48.840;9.188;2023-02-28T04:06:50;4.35;;;3.33;;
11598;SDS011;5855;48.840;9.188;2023-02-28T04:09:18;3.50;;;3.00;;
11598;SDS011;5855;48.840;9.188;2023-02-28T04:11:45;3.78;;;3.47;;
11598;SDS011;5855;48.840;9.188;2023-02-28T04:14:16;3.40;;;3.10;;
11598;SDS011;5855;48.840;9.188;2023-02-28T04:16:43;4.00;;;3.30;;
11598;SDS011;5855;48.840;9.188;2023-02-28T04:19:11;3.63;;;3.05;;
11598;SDS011;5855;48.840;9.188;2023-02-28T04:21:40;5.65;;;3.70;;
11598;SDS011;5855;48.840;9.188;2023-02-28T04:24:10;4.53;;;3.50;;
11598;SDS011;5855;48.840;9.188;2023-02-28T04:26:39;4.55;;;3.47;;
11598;SDS011;5855;48.840;9.188;2023-02-28T04:29:09;5.82;;;3.75;;
11598;SDS011;5855;48.840;9.188;2023-02-28T04:31:37;3.90;;;3.50;;
11598;SDS011;5855;48.840;9.188;2023-02-28T04:34:04;3.53;;;3.22;;
11598;SDS011;5855;48.840;9.188;2023-02-28T04:36:31;3.63;;;3.33;;
11598;SDS011;5855;48.840;9.188;2023-02-28T04:38:58;3.63;;;3.33;;
11598;SDS011;5855;48.840;9.188;2023-02-28T04:41:26;4.13;;;3.47;;
11598;SDS011;5855;48.840;9.188;2023-02-28T04:43:53;4.43;;;3.45;;
11598;SDS011;5855;48.840;9.188;2023-02-28T04:46:21;5.05;;;3.58;;
11598;SDS011;5855;48.840;9.188;2023-02-28T04:48:48;6.05;;;3.92;;
11598;SDS011;5855;48.840;9.188;2023-02-28T04:51:16;4.22;;;3.70;;
11598;SDS011;5855;48.840;9.188;2023-02-28T04:53:44;4.07;;;3.65;;
11598;SDS011;5855;48.840;9.188;2023-02-28T04:56:12;3.53;;;3.22;;
11598;SDS011;5855;48.840;9.188;2023-02-28T04:58:41;3.83;;;3.50;;
11598;SDS011;5855;48.840;9.188;2023-02-28T05:01:16;4.05;;;3.60;;
11598;SDS011;5855;48.840;9.188;2023-02-28T05:03:48;4.95;;;3.33;;
11598;SDS011;5855;48.840;9.188;2023-02-28T05:06:15;5.68;;;3.58;;
11598;SDS011;5855;48.840;9.188;2023-02-28T05:08:43;4.68;;;3.25;;
11598;SDS011;5855;48.840;9.188;2023-02-28T05:11:13;4.28;;;3.75;;
11598;SDS011;5855;48.840;9.188;2023-02-28T05:13:43;4.43;;;3.90;;
11598;SDS011;5855;48.840;9.188;2023-02-28T05:16:11;4.35;;;3.95;;
11598;SDS011;5855;48.840;9.188;2023-02-28T05:18:37;3.88;;;3.47;;
11598;SDS011;5855;48.840;9.188;2023-02-28T05:21:05;5.28;;;3.70;;
11598;SDS011;5855;48.840;9.188;2023-02-28T05:23:32;5.25;;;3.70;;
11598;SDS011;5855;48.840;9.188;2023-02-28T05:25:59;4.38;;;3.70;;
11598;SDS011;5855;48.840;9.188;2023-02-28T05:28:25;4.75;;;3.80;;
11598;SDS011;5855;48.840;9.188;2023-02-28T05:30:54;4.90;;;3.88;;
11598;SDS011;5855;48.840;9.188;2023-02-28T05:33:20;4.55;;;3.80;;
11598;SDS011;5855;48.840;9.188;2023-02-28T05:35:47;4.57;;;3.97;;
11598;SDS011;5855;48.840;9.188;2023-02-28T05:38:14;4.47;;;3.75;;
11598;SDS011;5855;48.840;9.188;2023-02-28T05:40:41;4.72;;;4.00;;
11598;SDS011;5855;48.840;9.188;2023-02-28T05:43:09;5.05;;;3.85;;
11598;SDS011;5855;48.840;9.188;2023-02-28T05:45:37;4.45;;;4.05;;
11598;SDS011;5855;48.840;9.188;2023-02-28T05:48:06;5.07;;;4.00;;
11598;SDS011;5855;48.840;9.188;2023-02-28T05:50:34;5.63;;;4.05;;
11598;SDS011;5855;48.840;9.188;2023-02-28T05:53:01;4.82;;;4.20;;
11598;SDS011;5855;48.840;9.188;2023-02-28T05:55:28;5.65;;;4.07;;
11598;SDS011;5855;48.840;9.188;2023-02-28T05:57:54;4.65;;;4.03;;
11598;SDS011;5855;48.840;9.188;2023-02-28T06:00:22;4.63;;;4.22;;
11598;SDS011;5855;48.840;9.188;2023-02-28T06:02:49;4.30;;;3.90;;
11598;SDS011;5855;48.840;9.188;2023-02-28T06:05:17;5.18;;;3.95;;
11598;SDS011;5855;48.840;9.188;2023-02-28T06:07:44;4.68;;;3.92;;
11598;SDS011;5855;48.840;9.188;2023-02-28T06:10:11;5.10;;;4.10;;
11598;SDS011;5855;48.840;9.188;2023-02-28T06:12:38;4.22;;;3.83;;
11598;SDS011;5855;48.840;9.188;2023-02-28T06:15:07;4.65;;;4.10;;
11598;SDS011;5855;48.840;9.188;2023-02-28T06:17:37;6.00;;;4.03;;
11598;SDS011;5855;48.840;9.188;2023-02-28T06:20:04;5.35;;;4.30;;
11598;SDS011;5855;48.840;9.188;2023-02-28T06:22:33;6.28;;;4.50;;
11598;SDS011;5855;48.840;9.188;2023-02-28T06:25:01;5.35;;;4.50;;
11598;SDS011;5855;48.840;9.188;2023-02-28T06:27:28;5.65;;;5.03;;
11598;SDS011;5855;48.840;9.188;2023-02-28T06:29:56;5.57;;;3.90;;
11598;SDS011;5855;48.840;9.188;2023-02-28T06:32:23;4.75;;;4.25;;
11598;SDS011;5855;48.840;9.188;2023-02-28T06:34:50;5.68;;;4.47;;
11598;SDS011;5855;48.840;9.188;2023-02-28T06:37:16;5.10;;;4.20;;
11598;SDS011;5855;48.840;9.188;2023-02-28T06:39:45;5.40;;;4.45;;
11598;SDS011;5855;48.840;9.188;2023-02-28T06:42:12;5.47;;;4.30;;
11598;SDS011;5855;48.840;9.188;2023-02-28T06:44:38;4.95;;;3.88;;
11598;SDS011;5855;48.840;9.188;2023-02-28T06:47:05;5.85;;;4.38;;
11598;SDS011;5855;48.840;9.188;2023-02-28T06:49:33;5.13;;;4.63;;
11598;SDS011;5855;48.840;9.188;2023-02-28T06:52:01;5.03;;;4.28;;
11598;SDS011;5855;48.840;9.188;2023-02-28T06:54:28;5.05;;;4.32;;
11598;SDS011;5855;48.840;9.188;2023-02-28T06:56:58;6.20;;;4.50;;
11598;SDS011;5855;48.840;9.188;2023-02-28T06:59:25;5.32;;;4.38;;
11598;SDS011;5855;48.840;9.188;2023-02-28T07:01:52;5.07;;;4.30;;
11598;SDS011;5855;48.840;9.188;2023-02-28T07:04:19;5.10;;;4.22;;
11598;SDS011;5855;48.840;9.188;2023-02-28T07:06:46;4.90;;;4.40;;
11598;SDS011;5855;48.840;9.188;2023-02-28T07:09:13;4.22;;;3.83;;
11598;SDS011;5855;48.840;9.188;2023-02-28T07:11:40;5.80;;;4.97;;
11598;SDS011;5855;48.840;9.188;2023-02-28T07:14:09;5.00;;;4.32;;
11598;SDS011;5855;48.840;9.188;2023-02-28T07:16:36;6.90;;;5.07;;
11598;SDS011;5855;48.840;9.188;2023-02-28T07:19:05;5.03;;;4.53;;
11598;SDS011;5855;48.840;9.188;2023-02-28T07:21:32;7.30;;;4.43;;
11598;SDS011;5855;48.840;9.188;2023-02-28T07:23:59;7.13;;;5.00;;
11598;SDS011;5855;48.840;9.188;2023-02-28T07:26:25;4.88;;;4.45;;
11598;SDS011;5855;48.840;9.188;2023-02-28T07:28:52;5.88;;;4.90;;
11598;SDS011;5855;48.840;9.188;2023-02-28T07:31:20;5.25;;;4.60;;
11598;SDS011;5855;48.840;9.188;2023-02-28T07:33:47;5.60;;;4.82;;
11598;SDS011;5855;48.840;9.188;2023-02-28T07:36:14;5.78;;;4.85;;
11598;SDS011;5855;48.840;9.188;2023-02-28T07:38:43;5.40;;;4.90;;
11598;SDS011;5855;48.840;9.188;2023-02-28T07:41:13;6.13;;;4.80;;
11598;SDS011;5855;48.840;9.188;2023-02-28T07:43:39;5.60;;;5.00;;
11598;SDS011;5855;48.840;9.188;2023-02-28T07:46:07;5.15;;;4.65;;
11598;SDS011;5855;48.840;9.188;2023-02-28T07:48:36;5.15;;;4.65;;
11598;SDS011;5855;48.840;9.188;2023-02-28T07:51:03;5.15;;;4.40;;
11598;SDS011;5855;48.840;9.188;2023-02-28T07:53:31;6.65;;;5.07;;
11598;SDS011;5855;48.840;9.188;2023-02-28T07:55:58;5.60;;;4.68;;
11598;SDS011;5855;48.840;9.188;2023-02-28T07:58:26;6.63;;;4.82;;
11598;SDS011;5855;48.840;9.188;2023-02-28T08:00:53;6.25;;;5.03;;
11598;SDS011;5855;48.840;9.188;2023-02-28T08:03:21;7.00;;;5.00;;
11598;SDS011;5855;48.840;9.188;2023-02-28T08:05:50;6.05;;;4.78;;
11598;SDS011;5855;48.840;9.188;2023-02-28T08:08:20;6.97;;;5.18;;
11598;SDS011;5855;48.840;9.188;2023-02-28T08:10:47;5.57;;;4.70;;
11598;SDS011;5855;48.840;9.188;2023-02-28T08:13:14;6.28;;;5.35;;
11598;SDS011;5855;48.840;9.188;2023-02-28T08:15:41;5.97;;;4.82;;
11598;SDS011;5855;48.840;9.188;2023-02-28T08:18:10;6.13;;;5.45;;
11598;SDS011;5855;48.840;9.188;2023-02-28T08:20:37;5.70;;;5.10;;
11598;SDS011;5855;48.840;9.188;2023-02-28T08:23:05;5.97;;;5.38;;
11598;SDS011;5855;48.840;9.188;2023-02-28T08:25:31;5.85;;;5.22;;
11598;SDS011;5855;48.840;9.188;2023-02-28T08:27:58;8.05;;;5.38;;
11598;SDS011;5855;48.840;9.188;2023-02-28T08:30:25;7.40;;;5.03;;
11598;SDS011;5855;48.840;9.188;2023-02-28T08:32:52;5.93;;;5.18;;
11598;SDS011;5855;48.840;9.188;2023-02-28T08:35:19;6.50;;;5.47;;
11598;SDS011;5855;48.840;9.188;2023-02-28T08:37:47;7.35;;;5.43;;
11598;SDS011;5855;48.840;9.188;2023-02-28T08:40:16;6.20;;;5.50;;
11598;SDS011;5855;48.840;9.188;2023-02-28T08:42:43;5.50;;;5.00;;
11598;SDS011;5855;48.840;9.188;2023-02-28T08:45:10;6.88;;;5.07;;
11598;SDS011;5855;48.840;9.188;2023-02-28T08:47:38;7.65;;;5.28;;
11598;SDS011;5855;48.840;9.188;2023-02-28T08:50:05;6.25;;;5.57;;
11598;SDS011;5855;48.840;9.188;2023-02-28T08:52:32;6.20;;;5.13;;
11598;SDS011;5855;48.840;9.188;2023-02-28T08:54:59;6.22;;;5.53;;
11598;SDS011;5855;48.840;9.188;2023-02-28T08:57:27;6.53;;;5.78;;
11598;SDS011;5855;48.840;9.188;2023-02-28T08:59:54;6.30;;;5.63;;
11598;SDS011;5855;48.840;9.188;2023-02-28T09:02:20;6.95;;;5.70;;
11598;SDS011;5855;48.840;9.188;2023-02-28T09:04:47;7.82;;;5.95;;
11598;SDS011;5855;48.840;9.188;2023-02-28T09:07:14;6.47;;;5.35;;
11598;SDS011;5855;48.840;9.188;2023-02-28T09:09:41;7.78;;;5.60;;
11598;SDS011;5855;48.840;9.188;2023-02-28T09:12:18;6.32;;;5.72;;
11598;SDS011;5855;48.840;9.188;2023-02-28T09:14:47;6.80;;;5.72;;
11598;SDS011;5855;48.840;9.188;2023-02-28T09:17:13;6.50;;;5.70;;
11598;SDS011;5855;48.840;9.188;2023-02-28T09:19:40;6.70;;;6.00;;
11598;SDS011;5855;48.840;9.188;2023-02-28T09:22:07;6.40;;;5.40;;
11598;SDS011;5855;48.840;9.188;2023-02-28T09:24:35;12.82;;;5.38;;
11598;SDS011;5855;48.840;9.188;2023-02-28T09:27:02;7.70;;;6.07;;
11598;SDS011;5855;48.840;9.188;2023-02-28T09:29:29;7.75;;;5.45;;
11598;SDS011;5855;48.840;9.188;2023-02-28T09:31:57;10.35;;;6.93;;
11598;SDS011;5855;48.840;9.188;2023-02-28T09:34:24;6.97;;;6.07;;
11598;SDS011;5855;48.840;9.188;2023-02-28T09:36:51;6.18;;;5.57;;
11598;SDS011;5855;48.840;9.188;2023-02-28T09:39:19;7.03;;;6.32;;
11598;SDS011;5855;48.840;9.188;2023-02-28T09:41:47;6.65;;;5.70;;
11598;SDS011;5855;48.840;9.188;2023-02-28T09:44:17;6.57;;;5.70;;
11598;SDS011;5855;48.840;9.188;2023-02-28T09:46:49;8.85;;;6.07;;
11598;SDS011;5855;48.840;9.188;2023-02-28T09:49:24;6.75;;;5.60;;
11598;SDS011;5855;48.840;9.188;2023-02-28T09:51:58;6.20;;;5.60;;
11598;SDS011;5855;48.840;9.188;2023-02-28T09:54:28;6.88;;;5.68;;
11598;SDS011;5855;48.840;9.188;2023-02-28T09:56:57;7.38;;;5.57;;
11598;SDS011;5855;48.840;9.188;2023-02-28T09:59:32;6.53;;;5.93;;
11598;SDS011;5855;48.840;9.188;2023-02-28T10:02:21;7.05;;;6.10;;
11598;SDS011;5855;48.840;9.188;2023-02-28T10:05:21;7.95;;;6.15;;
11598;SDS011;5855;48.840;9.188;2023-02-28T10:07:53;7.25;;;6.18;;
11598;SDS011;5855;48.840;9.188;2023-02-28T10:10:27;8.13;;;5.90;;
11598;SDS011;5855;48.840;9.188;2023-02-28T10:12:59;6.80;;;5.93;;
11598;SDS011;5855;48.840;9.188;2023-02-28T10:15:29;8.20;;;6.05;;
11598;SDS011;5855;48.840;9.188;2023-02-28T10:17:59;7.25;;;5.90;;
11598;SDS011;5855;48.840;9.188;2023-02-28T10:20:30;7.35;;;6.40;;
11598;SDS011;5855;48.840;9.188;2023-02-28T10:23:02;7.50;;;6.35;;
11598;SDS011;5855;48.840;9.188;2023-02-28T10:25:35;6.20;;;5.60;;
11598;SDS011;5855;48.840;9.188;2023-02-28T10:28:14;8.00;;;6.68;;
11598;SDS011;5855;48.840;9.188;2023-02-28T10:30:43;7.30;;;6.50;;
11598;SDS011;5855;48.840;9.188;2023-02-28T10:33:15;6.85;;;6.22;;
11598;SDS011;5855;48.840;9.188;2023-02-28T10:35:50;7.60;;;6.50;;
11598;SDS011;5855;48.840;9.188;2023-02-28T10:38:18;6.80;;;6.13;;
11598;SDS011;5855;48.840;9.188;2023-02-28T10:40:46;7.82;;;6.35;;
11598;SDS011;5855;48.840;9.188;2023-02-28T10:43:20;7.07;;;6.25;;
11598;SDS011;5855;48.840;9.188;2023-02-28T10:45:53;7.57;;;6.03;;
11598;SDS011;5855;48.840;9.188;2023-02-28T10:48:27;6.57;;;5.88;;
11598;SDS011;5855;48.840;9.188;2023-02-28T10:50:58;6.30;;;5.70;;
11598;SDS011;5855;48.840;9.188;2023-02-28T10:53:33;7.22;;;6.13;;
11598;SDS011;5855;48.840;9.188;2023-02-28T10:56:04;7.47;;;6.57;;
11598;SDS011;5855;48.840;9.188;2023-02-28T10:58:44;7.35;;;6.13;;
11598;SDS011;5855;48.840;9.188;2023-02-28T11:01:15;6.80;;;6.10;;
11598;SDS011;5855;48.840;9.188;2023-02-28T11:03:44;9.40;;;6.35;;
11598;SDS011;5855;48.840;9.188;2023-02-28T11:06:17;7.32;;;6.63;;
11598;SDS011;5855;48.840;9.188;2023-02-28T11:08:47;7.10;;;6.28;;
11598;SDS011;5855;48.840;9.188;2023-02-28T11:11:16;6.68;;;5.97;;
11598;SDS011;5855;48.840;9.188;2023-02-28T11:13:44;8.07;;;6.93;;
11598;SDS011;5855;48.840;9.188;2023-02-28T11:16:13;7.18;;;6.47;;
11598;SDS011;5855;48.840;9.188;2023-02-28T11:18:42;7.43;;;6.00;;
11598;SDS011;5855;48.840;9.188;2023-02-28T11:21:20;7.25;;;6.22;;
11598;SDS011;5855;48.840;9.188;2023-02-28T11:23:49;7.88;;;6.40;;
11598;SDS011;5855;48.840;9.188;2023-02-28T11:29:09;6.72;;;6.03;;
11598;SDS011;5855;48.840;9.188;2023-02-28T11:31:48;6.57;;;5.72;;
11598;SDS011;5855;48.840;9.188;2023-02-28T11:34:28;6.93;;;6.28;;
11598;SDS011;5855;48.840;9.188;2023-02-28T11:36:58;7.55;;;6.50;;
11598;SDS011;5855;48.840;9.188;2023-02-28T11:39:26;7.88;;;6.15;;
11598;SDS011;5855;48.840;9.188;2023-02-28T11:42:00;6.45;;;5.80;;
11598;SDS011;5855;48.840;9.188;2023-02-28T11:44:42;7.70;;;5.97;;
11598;SDS011;5855;48.840;9.188;2023-02-28T11:47:21;7.35;;;6.35;;
11598;SDS011;5855;48.840;9.188;2023-02-28T11:49:58;8.00;;;5.82;;
11598;SDS011;5855;48.840;9.188;2023-02-28T11:52:41;7.72;;;6.18;;
11598;SDS011;5855;48.840;9.188;2023-02-28T11:55:16;6.93;;;5.97;;
11598;SDS011;5855;48.840;9.188;2023-02-28T11:57:55;7.18;;;6.47;;
11598;SDS011;5855;48.840;9.188;2023-02-28T12:00:33;6.95;;;6.25;;
11598;SDS011;5855;48.840;9.188;2023-02-28T12:03:26;7.15;;;6.32;;
11598;SDS011;5855;48.840;9.188;2023-02-28T12:06:01;7.32;;;6.00;;
11598;SDS011;5855;48.840;9.188;2023-02-28T12:08:43;6.72;;;6.03;;
11598;SDS011;5855;48.840;9.188;2023-02-28T12:11:19;6.53;;;5.93;;
11598;SDS011;5855;48.840;9.188;2023-02-28T12:13:59;7.03;;;5.80;;
11598;SDS011;5855;48.840;9.188;2023-02-28T12:16:43;6.28;;;5.68;;
11598;SDS011;5855;48.840;9.188;2023-02-28T12:19:17;6.13;;;5.57;;
11598;SDS011;5855;48.840;9.188;2023-02-28T12:21:50;6.15;;;5.40;;
11598;SDS011;5855;48.840;9.188;2023-02-28T12:24:39;6.03;;;5.43;;
11598;SDS011;5855;48.840;9.188;2023-02-28T12:27:21;6.95;;;6.28;;
11598;SDS011;5855;48.840;9.188;2023-02-28T12:29:51;6.25;;;5.65;;
11598;SDS011;5855;48.840;9.188;2023-02-28T12:32:23;6.35;;;5.75;;
11598;SDS011;5855;48.840;9.188;2023-02-28T12:34:55;6.07;;;5.50;;
11598;SDS011;5855;48.840;9.188;2023-02-28T12:37:28;6.47;;;5.88;;
11598;SDS011;5855;48.840;9.188;2023-02-28T12:40:02;6.13;;;5.53;;
11598;SDS011;5855;48.840;9.188;2023-02-28T12:42:33;6.20;;;5.60;;
11598;SDS011;5855;48.840;9.188;2023-02-28T12:45:07;6.63;;;5.70;;
11598;SDS011;5855;48.840;9.188;2023-02-28T12:47:38;6.13;;;5.53;;
11598;SDS011;5855;48.840;9.188;2023-02-28T12:50:09;6.20;;;5.35;;
11598;SDS011;5855;48.840;9.188;2023-02-28T12:52:43;6.82;;;5.57;;
11598;SDS011;5855;48.840;9.188;2023-02-28T12:55:21;6.50;;;5.90;;
11598;SDS011;5855;48.840;9.188;2023-02-28T12:57:55;6.60;;;5.20;;
11598;SDS011;5855;48.840;9.188;2023-02-28T13:00:28;7.50;;;5.90;;
11598;SDS011;5855;48.840;9.188;2023-02-28T13:09:10;5.72;;;5.18;;
11598;SDS011;5855;48.840;9.188;2023-02-28T13:11:41;6.15;;;5.43;;
11598;SDS011;5855;48.840;9.188;2023-02-28T13:16:56;5.55;;;5.05;;
11598;SDS011;5855;48.840;9.188;2023-02-28T13:19:26;6.38;;;5.22;;
11598;SDS011;5855;48.840;9.188;2023-02-28T13:21:55;5.72;;;5.13;;
11598;SDS011;5855;48.840;9.188;2023-02-28T13:30:00;7.53;;;5.57;;
11598;SDS011;5855;48.840;9.188;2023-02-28T13:32:47;5.50;;;4.95;;
11598;SDS011;5855;48.840;9.188;2023-02-28T13:36:08;5.40;;;4.90;;
11598;SDS011;5855;48.840;9.188;2023-02-28T13:38:39;5.13;;;4.63;;
11598;SDS011;5855;48.840;9.188;2023-02-28T13:44:11;5.78;;;5.18;;
11598;SDS011;5855;48.840;9.188;2023-02-28T13:50:18;5.30;;;4.40;;
11598;SDS011;5855;48.840;9.188;2023-02-28T13:52:51;5.07;;;4.57;;
11598;SDS011;5855;48.840;9.188;2023-02-28T13:55:28;4.60;;;4.25;;
11598;SDS011;5855;48.840;9.188;2023-02-28T13:58:05;5.88;;;4.38;;
11598;SDS011;5855;48.840;9.188;2023-02-28T14:00:49;5.00;;;4.57;;
11598;SDS011;5855;48.840;9.188;2023-02-28T14:03:47;4.35;;;3.95;;
11598;SDS011;5855;48.840;9.188;2023-02-28T14:06:37;4.68;;;4.28;;
11598;SDS011;5855;48.840;9.188;2023-02-28T14:09:06;4.88;;;4.45;;
11598;SDS011;5855;48.840;9.188;2023-02-28T14:11:45;4.47;;;4.10;;
11598;SDS011;5855;48.840;9.188;2023-02-28T14:17:14;5.07;;;4.35;;
11598;SDS011;5855;48.840;9.188;2023-02-28T14:19:44;4.85;;;4.38;;
11598;SDS011;5855;48.840;9.188;2023-02-28T14:22:16;5.20;;;4.32;;
11598;SDS011;5855;48.840;9.188;2023-02-28T14:25:11;5.18;;;4.60;;
11598;SDS011;5855;48.840;9.188;2023-02-28T14:27:48;4.88;;;4.47;;
11598;SDS011;5855;48.840;9.188;2023-02-28T14:33:22;4.82;;;4.32;;
11598;SDS011;5855;48.840;9.188;2023-02-28T14:36:16;4.75;;;4.32;;
11598;SDS011;5855;48.840;9.188;2023-02-28T14:38:48;4.32;;;3.92;;
11598;SDS011;5855;48.840;9.188;2023-02-28T14:41:20;5.20;;;4.43;;
11598;SDS011;5855;48.840;9.188;2023-02-28T14:43:49;4.95;;;4.55;;
11598;SDS011;5855;48.840;9.188;2023-02-28T14:46:18;5.03;;;4.63;;
11598;SDS011;5855;48.840;9.188;2023-02-28T14:48:47;4.85;;;4.35;;
11598;SDS011;5855;48.840;9.188;2023-02-28T14:51:18;5.00;;;4.45;;
11598;SDS011;5855;48.840;9.188;2023-02-28T14:53:47;4.78;;;4.28;;
11598;SDS011;5855;48.840;9.188;2023-02-28T14:56:21;4.40;;;4.03;;
11598;SDS011;5855;48.840;9.188;2023-02-28T14:58:51;4.32;;;4.00;;
11598;SDS011;5855;48.840;9.188;2023-02-28T15:01:19;4.40;;;4.00;;
11598;SDS011;5855;48.840;9.188;2023-02-28T15:03:49;4.43;;;4.03;;
11598;SDS011;5855;48.840;9.188;2023-02-28T15:06:24;4.88;;;4.47;;
11598;SDS011;5855;48.840;9.188;2023-02-28T15:09:06;4.40;;;4.00;;
11598;SDS011;5855;48.840;9.188;2023-02-28T15:11:34;5.53;;;4.07;;
11598;SDS011;5855;48.840;9.188;2023-02-28T15:14:02;5.00;;;4.57;;
11598;SDS011;5855;48.840;9.188;2023-02-28T15:16:31;5.07;;;4.40;;
11598;SDS011;5855;48.840;9.188;2023-02-28T15:19:03;4.30;;;4.00;;
11598;SDS011;5855;48.840;9.188;2023-02-28T15:21:33;5.05;;;4.55;;
11598;SDS011;5855;48.840;9.188;2023-02-28T15:24:12;4.97;;;4.47;;
11598;SDS011;5855;48.840;9.188;2023-02-28T15:26:49;5.70;;;5.10;;
11598;SDS011;5855;48.840;9.188;2023-02-28T15:29:21;5.78;;;4.97;;
11598;SDS011;5855;48.840;9.188;2023-02-28T15:31:52;5.45;;;4.95;;
11598;SDS011;5855;48.840;9.188;2023-02-28T15:34:27;6.28;;;5.78;;
11598;SDS011;5855;48.840;9.188;2023-02-28T15:37:00;5.97;;;5.38;;
11598;SDS011;5855;48.840;9.188;2023-02-28T15:39:28;6.05;;;5.45;;
11598;SDS011;5855;48.840;9.188;2023-02-28T15:42:09;6.63;;;5.95;;
11598;SDS011;5855;48.840;9.188;2023-02-28T15:44:36;6.30;;;5.80;;
11598;SDS011;5855;48.840;9.188;2023-02-28T15:47:03;7.03;;;6.32;;
11598;SDS011;5855;48.840;9.188;2023-02-28T15:49:37;6.07;;;5.47;;
11598;SDS011;5855;48.840;9.188;2023-02-28T15:52:09;6.93;;;6.15;;
11598;SDS011;5855;48.840;9.188;2023-02-28T15:54:40;6.85;;;6.25;;
11598;SDS011;5855;48.840;9.188;2023-02-28T15:57:10;6.72;;;6.13;;
11598;SDS011;5855;48.840;9.188;2023-02-28T15:59:42;6.78;;;6.15;;
11598;SDS011;5855;48.840;9.188;2023-02-28T16:02:16;5.82;;;5.30;;
11598;SDS011;5855;48.840;9.188;2023-02-28T16:04:56;6.60;;;6.00;;